createdAt,value
2023-09-29T00:00:18.528Z,3.13
2023-09-29T00:02:48.488Z,3.28
2023-09-29T00:05:19.454Z,3.55
2023-09-29T00:07:48.064Z,3.30
2023-09-29T00:10:18.385Z,4.10
2023-09-29T00:12:49.811Z,3.47
2023-09-29T00:15:18.435Z,3.13
2023-09-29T00:17:47.196Z,3.28
2023-09-29T00:20:20.916Z,3.55
2023-09-29T00:22:49.121Z,2.95
2023-09-29T00:25:17.131Z,3.22
2023-09-29T00:27:46.123Z,3.17
2023-09-29T00:30:16.603Z,2.70
2023-09-29T00:32:48.615Z,3.00
2023-09-29T00:35:22.997Z,3.20
2023-09-29T00:37:51.069Z,3.83
2023-09-29T00:40:19.132Z,3.03
2023-09-29T00:42:48.068Z,3.35
2023-09-29T00:45:23.671Z,3.40
2023-09-29T00:47:53.279Z,3.13
2023-09-29T00:50:22.116Z,3.97
2023-09-29T00:52:53.806Z,3.28
2023-09-29T00:55:27.816Z,3.25
2023-09-29T00:57:59.784Z,3.83
2023-09-29T01:00:37.274Z,2.92
2023-09-29T01:03:07.331Z,3.63
2023-09-29T01:05:40.746Z,3.83
2023-09-29T01:08:10.860Z,4.13
2023-09-29T01:10:39.261Z,3.70
2023-09-29T01:13:08.182Z,4.32
2023-09-29T01:15:39.308Z,4.15
2023-09-29T01:18:08.796Z,4.13
2023-09-29T01:20:38.768Z,4.10
2023-09-29T01:23:09.218Z,3.83
2023-09-29T01:25:39.645Z,3.60
2023-09-29T01:28:09.814Z,3.25
2023-09-29T01:30:38.755Z,3.97
2023-09-29T01:33:07.784Z,4.63
2023-09-29T01:35:35.938Z,4.00
2023-09-29T01:38:03.982Z,3.47
2023-09-29T01:40:31.988Z,3.92
2023-09-29T01:43:01.382Z,3.72
2023-09-29T01:45:29.475Z,3.13
2023-09-29T01:47:57.676Z,3.78
2023-09-29T01:50:27.715Z,3.20
2023-09-29T01:52:55.770Z,3.25
2023-09-29T01:55:25.445Z,4.10
2023-09-29T01:57:56.153Z,4.35
2023-09-29T02:00:27.058Z,3.47
2023-09-29T02:02:56.597Z,3.83
2023-09-29T02:05:25.770Z,3.85
2023-09-29T02:07:54.529Z,3.65
2023-09-29T02:10:23.886Z,3.97
2023-09-29T02:12:57.290Z,4.25
2023-09-29T02:15:27.726Z,4.05
2023-09-29T02:17:55.941Z,4.03
2023-09-29T02:20:38.723Z,4.25
2023-09-29T02:23:08.623Z,3.83
2023-09-29T02:25:36.981Z,4.05
2023-09-29T02:28:05.473Z,3.85
2023-09-29T02:30:35.271Z,3.58
2023-09-29T02:33:03.614Z,4.05
2023-09-29T02:35:32.219Z,3.58
2023-09-29T02:38:00.671Z,4.28
2023-09-29T02:40:30.078Z,3.97
2023-09-29T02:42:58.225Z,4.38
2023-09-29T02:45:26.732Z,4.63
2023-09-29T02:47:56.832Z,3.40
2023-09-29T02:50:26.609Z,4.10
2023-09-29T02:52:54.919Z,3.70
2023-09-29T02:55:24.468Z,4.82
2023-09-29T02:57:52.847Z,3.80
2023-09-29T03:00:23.251Z,3.90
2023-09-29T03:02:53.111Z,3.97
2023-09-29T03:05:23.394Z,3.42
2023-09-29T03:07:55.740Z,3.85
2023-09-29T03:10:27.053Z,4.60
2023-09-29T03:12:58.222Z,3.70
2023-09-29T03:15:27.671Z,4.10
2023-09-29T03:17:59.629Z,4.75
2023-09-29T03:20:30.217Z,4.75
2023-09-29T03:23:00.040Z,4.10
2023-09-29T03:25:28.191Z,4.20
2023-09-29T03:27:56.277Z,4.25
2023-09-29T03:30:24.450Z,3.92
2023-09-29T03:32:55.029Z,4.30
2023-09-29T03:35:23.624Z,3.80
2023-09-29T03:37:53.079Z,3.80
2023-09-29T03:40:21.111Z,4.00
2023-09-29T03:42:49.146Z,4.05
2023-09-29T03:45:17.488Z,4.18
2023-09-29T03:47:48.300Z,3.60
2023-09-29T03:50:16.586Z,3.92
2023-09-29T03:52:47.292Z,3.97
2023-09-29T03:55:17.458Z,3.70
2023-09-29T03:57:46.502Z,4.32
2023-09-29T04:00:17.689Z,4.00
2023-09-29T04:02:46.618Z,3.35
2023-09-29T04:05:16.611Z,4.10
2023-09-29T04:07:44.694Z,3.70
2023-09-29T04:10:14.226Z,4.25
2023-09-29T04:12:47.306Z,3.90
2023-09-29T04:15:17.989Z,4.07
2023-09-29T04:17:47.110Z,4.10
2023-09-29T04:20:16.897Z,4.03
2023-09-29T04:22:45.015Z,3.65
2023-09-29T04:25:13.158Z,4.00
2023-09-29T04:27:42.307Z,3.85
2023-09-29T04:30:14.001Z,4.35
2023-09-29T04:32:42.686Z,4.35
2023-09-29T04:35:11.547Z,4.63
2023-09-29T04:37:39.745Z,4.00
2023-09-29T04:40:09.240Z,4.07
2023-09-29T04:42:37.315Z,3.78
2023-09-29T04:45:07.321Z,4.43
2023-09-29T04:47:36.917Z,4.82
2023-09-29T04:50:06.611Z,4.65
2023-09-29T04:52:34.571Z,4.50
2023-09-29T04:55:02.562Z,4.22
2023-09-29T04:57:30.665Z,4.38
2023-09-29T04:59:58.929Z,4.35
2023-09-29T05:02:30.466Z,5.15
2023-09-29T05:05:00.143Z,4.53
2023-09-29T05:07:28.159Z,4.05
2023-09-29T05:09:56.151Z,4.95
2023-09-29T05:12:24.478Z,4.15
2023-09-29T05:14:52.503Z,4.50
2023-09-29T05:17:20.509Z,4.43
2023-09-29T05:19:48.470Z,4.25
2023-09-29T05:22:17.934Z,4.55
2023-09-29T05:24:45.912Z,4.32
2023-09-29T05:27:13.943Z,4.72
2023-09-29T05:29:41.938Z,4.85
2023-09-29T05:32:10.192Z,4.85
2023-09-29T05:34:38.216Z,4.22
2023-09-29T05:37:06.310Z,4.88
2023-09-29T05:39:35.834Z,4.10
2023-09-29T05:42:05.349Z,5.35
2023-09-29T05:44:33.480Z,4.55
2023-09-29T05:47:01.606Z,4.88
2023-09-29T05:49:29.643Z,4.22
2023-09-29T05:51:57.685Z,4.15
2023-09-29T05:54:25.800Z,3.90
2023-09-29T05:56:55.499Z,4.82
2023-09-29T05:59:23.944Z,4.68
2023-09-29T06:02:01.911Z,4.63
2023-09-29T06:04:37.758Z,4.72
2023-09-29T06:07:05.888Z,4.47
2023-09-29T06:09:33.929Z,4.35
2023-09-29T06:12:03.355Z,4.20
2023-09-29T06:14:33.587Z,4.50
2023-09-29T06:17:01.857Z,3.75
2023-09-29T06:19:29.926Z,4.57
2023-09-29T06:21:58.533Z,4.18
2023-09-29T06:24:26.543Z,4.20
2023-09-29T06:26:55.314Z,3.45
2023-09-29T06:29:25.713Z,3.25
2023-09-29T06:31:54.975Z,3.60
2023-09-29T06:34:22.959Z,3.30
2023-09-29T06:39:19.219Z,3.88
2023-09-29T06:41:56.760Z,3.90
2023-09-29T06:44:34.372Z,3.58
2023-09-29T06:47:02.758Z,3.22
2023-09-29T06:49:31.247Z,3.42
2023-09-29T06:52:00.145Z,3.60
2023-09-29T06:54:28.570Z,3.88
2023-09-29T06:56:57.020Z,3.78
2023-09-29T06:59:25.237Z,3.20
2023-09-29T07:01:57.560Z,4.10
2023-09-29T07:04:26.103Z,3.30
2023-09-29T07:06:54.329Z,4.68
2023-09-29T07:09:23.604Z,4.93
2023-09-29T07:11:52.171Z,4.25
2023-09-29T07:14:20.222Z,3.90
2023-09-29T07:16:51.181Z,4.22
2023-09-29T07:19:20.747Z,4.13
2023-09-29T07:21:48.947Z,4.03
2023-09-29T07:24:17.967Z,3.70
2023-09-29T07:26:46.580Z,3.38
2023-09-29T07:29:14.790Z,3.97
2023-09-29T07:31:48.037Z,3.67
2023-09-29T07:34:16.831Z,3.30
2023-09-29T07:36:47.166Z,3.60
2023-09-29T07:39:16.462Z,4.18
2023-09-29T07:41:44.781Z,3.80
2023-09-29T07:44:12.779Z,3.83
2023-09-29T07:46:41.396Z,3.40
2023-09-29T07:49:09.499Z,4.20
2023-09-29T07:51:39.607Z,4.22
2023-09-29T07:54:10.607Z,4.03
2023-09-29T07:56:39.799Z,4.28
2023-09-29T07:59:07.921Z,3.55
2023-09-29T08:01:35.959Z,3.70
2023-09-29T08:04:04.395Z,3.28
2023-09-29T08:06:32.683Z,3.35
2023-09-29T08:09:01.600Z,4.00
2023-09-29T08:11:31.154Z,3.50
2023-09-29T08:13:59.336Z,3.35
2023-09-29T08:16:28.299Z,3.33
2023-09-29T08:18:56.781Z,3.40
2023-09-29T08:21:25.136Z,3.63
2023-09-29T08:23:53.267Z,3.38
2023-09-29T08:26:21.442Z,3.10
2023-09-29T08:28:51.049Z,3.13
2023-09-29T08:31:19.480Z,3.13
2023-09-29T08:33:51.169Z,2.90
2023-09-29T08:36:19.869Z,3.20
2023-09-29T08:38:48.072Z,3.67
2023-09-29T08:41:18.525Z,3.58
2023-09-29T08:44:00.081Z,3.67
2023-09-29T08:46:36.235Z,3.60
2023-09-29T08:49:05.594Z,3.65
2023-09-29T08:51:35.509Z,3.58
2023-09-29T08:54:05.310Z,3.35
2023-09-29T08:56:33.968Z,3.05
2023-09-29T08:59:04.501Z,3.50
2023-09-29T09:01:34.274Z,3.65
2023-09-29T09:04:02.712Z,3.30
2023-09-29T09:06:31.876Z,2.97
2023-09-29T09:09:00.235Z,3.92
2023-09-29T09:11:29.360Z,3.22
2023-09-29T09:14:04.546Z,3.60
2023-09-29T09:16:35.434Z,3.03
2023-09-29T09:19:11.222Z,3.35
2023-09-29T09:21:39.465Z,3.28
2023-09-29T09:24:18.202Z,4.28
2023-09-29T09:26:47.471Z,3.88
2023-09-29T09:29:18.359Z,3.30
2023-09-29T09:31:52.150Z,4.25
2023-09-29T09:34:20.266Z,3.60
2023-09-29T09:36:53.465Z,3.92
2023-09-29T09:39:26.357Z,3.55
2023-09-29T09:41:55.768Z,3.47
2023-09-29T09:44:25.162Z,3.47
2023-09-29T09:47:01.485Z,3.47
2023-09-29T09:49:37.667Z,3.40
2023-09-29T09:52:09.286Z,3.65
2023-09-29T09:54:46.521Z,3.67
2023-09-29T09:57:16.012Z,3.20
2023-09-29T09:59:45.490Z,2.90
2023-09-29T10:02:15.961Z,3.58
2023-09-29T10:04:45.524Z,3.70
2023-09-29T10:07:15.880Z,3.08
2023-09-29T10:09:45.742Z,4.63
2023-09-29T10:12:25.521Z,3.70
2023-09-29T10:14:54.750Z,3.97
2023-09-29T10:17:24.872Z,3.85
2023-09-29T10:19:55.949Z,3.65
2023-09-29T10:22:26.368Z,3.95
2023-09-29T10:24:58.755Z,3.97
2023-09-29T10:27:35.881Z,4.13
2023-09-29T10:30:17.737Z,3.60
2023-09-29T10:32:50.082Z,3.08
2023-09-29T10:35:22.260Z,4.22
2023-09-29T10:37:56.315Z,4.07
2023-09-29T10:40:33.267Z,3.55
2023-09-29T10:43:03.446Z,4.90
2023-09-29T10:45:37.612Z,4.65
2023-09-29T10:48:09.466Z,3.75
2023-09-29T10:50:42.027Z,3.72
2023-09-29T10:53:10.596Z,4.10
2023-09-29T10:55:45.115Z,4.00
2023-09-29T10:58:14.739Z,3.50
2023-09-29T11:00:48.367Z,3.42
2023-09-29T11:03:20.348Z,3.72
2023-09-29T11:05:53.096Z,3.67
2023-09-29T11:08:22.357Z,5.10
2023-09-29T11:10:57.874Z,3.65
2023-09-29T11:13:26.384Z,3.75
2023-09-29T11:15:55.098Z,3.90
2023-09-29T11:18:32.889Z,3.88
2023-09-29T11:21:05.035Z,3.67
2023-09-29T11:23:41.768Z,3.58
2023-09-29T11:26:11.527Z,3.40
2023-09-29T11:28:43.491Z,3.65
2023-09-29T11:31:14.082Z,3.03
2023-09-29T11:33:54.123Z,3.60
2023-09-29T11:36:24.805Z,3.30
2023-09-29T11:38:53.195Z,3.22
2023-09-29T11:41:22.616Z,3.35
2023-09-29T11:43:52.014Z,3.40
2023-09-29T11:46:20.194Z,3.80
2023-09-29T11:48:49.705Z,3.30
2023-09-29T11:51:17.928Z,2.70
2023-09-29T11:53:46.138Z,3.00
2023-09-29T11:56:14.341Z,3.13
2023-09-29T11:58:45.090Z,3.60
2023-09-29T12:01:13.625Z,3.00
2023-09-29T12:03:42.923Z,3.30
2023-09-29T12:06:14.823Z,2.95
2023-09-29T12:08:43.346Z,3.15
2023-09-29T12:11:12.401Z,3.33
2023-09-29T12:13:41.128Z,3.70
2023-09-29T12:16:11.063Z,2.92
2023-09-29T12:18:39.370Z,3.97
2023-09-29T12:21:13.798Z,3.88
2023-09-29T12:23:43.318Z,3.67
2023-09-29T12:26:11.754Z,2.95
2023-09-29T12:28:40.720Z,2.80
2023-09-29T12:31:16.812Z,3.03
2023-09-29T12:33:46.755Z,2.95
2023-09-29T12:36:17.016Z,2.90
2023-09-29T12:38:46.590Z,2.30
2023-09-29T12:41:16.826Z,2.92
2023-09-29T12:43:45.796Z,2.65
2023-09-29T12:46:14.068Z,2.47
2023-09-29T12:48:42.354Z,2.95
2023-09-29T12:51:27.962Z,3.63
2023-09-29T12:53:57.981Z,3.05
2023-09-29T12:56:27.557Z,2.80
2023-09-29T12:58:57.300Z,2.72
2023-09-29T13:02:02.386Z,2.90
2023-09-29T13:04:30.933Z,2.75
2023-09-29T13:07:00.818Z,3.05
2023-09-29T13:09:29.926Z,2.08
2023-09-29T13:11:58.352Z,2.80
2023-09-29T13:14:26.682Z,2.22
2023-09-29T13:16:54.830Z,1.95
2023-09-29T13:19:23.805Z,2.30
2023-09-29T13:21:54.461Z,2.83
2023-09-29T13:24:24.478Z,2.83
2023-09-29T13:26:52.732Z,4.15
2023-09-29T13:29:20.813Z,6.05
2023-09-29T13:31:48.986Z,6.15
2023-09-29T13:34:17.084Z,5.40
2023-09-29T13:36:46.884Z,6.03
2023-09-29T13:41:45.700Z,6.88
2023-09-29T13:44:14.011Z,6.50
2023-09-29T13:46:56.092Z,6.88
2023-09-29T13:49:30.254Z,9.18
2023-09-29T13:51:59.066Z,12.07
2023-09-29T13:54:27.242Z,10.30
2023-09-29T13:56:58.258Z,10.50
2023-09-29T13:59:26.637Z,16.73
2023-09-29T14:01:54.815Z,15.27
2023-09-29T14:04:23.231Z,19.52
2023-09-29T14:06:52.399Z,13.40
2023-09-29T14:09:20.683Z,13.20
2023-09-29T14:11:51.306Z,16.58
2023-09-29T14:14:22.139Z,16.00
2023-09-29T14:16:50.721Z,15.82
2023-09-29T14:19:18.858Z,26.65
2023-09-29T14:21:48.824Z,36.45
2023-09-29T14:24:19.056Z,26.55
2023-09-29T14:26:47.726Z,19.60
2023-09-29T14:29:18.366Z,16.27
2023-09-29T14:31:48.296Z,16.48
2023-09-29T14:34:17.800Z,17.13
2023-09-29T14:36:46.217Z,15.52
2023-09-29T14:39:16.632Z,16.55
2023-09-29T14:41:45.720Z,15.30
2023-09-29T14:44:14.145Z,13.68
2023-09-29T14:46:42.403Z,13.70
2023-09-29T14:49:14.527Z,14.07
2023-09-29T14:51:42.631Z,12.98
2023-09-29T14:58:10.036Z,15.95
2023-09-29T15:00:43.351Z,15.75
2023-09-29T15:05:44.779Z,17.50
2023-09-29T15:08:13.185Z,16.30
2023-09-29T15:10:47.784Z,18.48
2023-09-29T15:13:16.156Z,18.05
2023-09-29T15:15:46.389Z,18.08
2023-09-29T15:18:30.688Z,17.52
2023-09-29T15:21:09.484Z,19.45
2023-09-29T15:23:39.303Z,19.95
2023-09-29T15:26:12.255Z,21.50
2023-09-29T15:28:44.747Z,22.27
2023-09-29T15:31:13.340Z,22.30
2023-09-29T15:33:42.636Z,21.85
2023-09-29T15:36:13.483Z,22.88
2023-09-29T15:38:43.537Z,24.00
2023-09-29T15:41:12.663Z,23.25
2023-09-29T15:43:41.407Z,22.15
2023-09-29T15:46:11.984Z,23.88
2023-09-29T15:48:41.420Z,25.25
2023-09-29T15:51:12.372Z,21.70
2023-09-29T15:53:42.271Z,23.75
2023-09-29T15:56:11.024Z,22.83
2023-09-29T15:58:40.669Z,22.17
2023-09-29T16:01:13.679Z,23.30
2023-09-29T16:03:42.331Z,22.65
2023-09-29T16:06:12.207Z,22.65
2023-09-29T16:08:40.754Z,22.05
2023-09-29T16:11:09.292Z,21.90
2023-09-29T16:13:37.901Z,20.98
2023-09-29T16:16:08.884Z,21.60
2023-09-29T16:18:37.512Z,19.83
2023-09-29T16:21:06.704Z,21.90
2023-09-29T16:23:37.148Z,20.52
2023-09-29T16:26:05.503Z,20.80
2023-09-29T16:28:33.851Z,23.65
2023-09-29T16:31:04.470Z,23.20
2023-09-29T16:33:32.888Z,23.13
2023-09-29T16:36:01.305Z,22.13
2023-09-29T16:38:29.616Z,23.70
2023-09-29T16:40:59.836Z,22.20
2023-09-29T16:43:28.283Z,22.13
2023-09-29T16:45:56.749Z,22.13
2023-09-29T16:48:25.222Z,21.42
2023-09-29T16:50:53.840Z,25.17
2023-09-29T16:53:29.022Z,24.40
2023-09-29T16:56:04.091Z,25.02
2023-09-29T16:58:33.854Z,25.88
2023-09-29T17:01:04.588Z,27.73
2023-09-29T17:03:35.456Z,25.20
2023-09-29T17:06:05.562Z,26.33
2023-09-29T17:08:36.463Z,28.65
2023-09-29T17:11:14.652Z,28.45
2023-09-29T17:13:44.810Z,28.13
2023-09-29T17:16:13.900Z,30.38
2023-09-29T17:18:45.201Z,31.02
2023-09-29T17:21:15.518Z,33.58
2023-09-29T17:23:45.469Z,35.22
2023-09-29T17:26:16.316Z,34.53
2023-09-29T17:28:46.182Z,38.10
2023-09-29T17:31:14.718Z,38.17
2023-09-29T17:33:43.003Z,38.47
2023-09-29T17:36:11.524Z,40.00
2023-09-29T17:38:43.076Z,38.97
2023-09-29T17:41:12.651Z,36.63
2023-09-29T17:43:42.334Z,36.45
2023-09-29T17:46:10.505Z,37.67
2023-09-29T17:48:43.293Z,37.60
2023-09-29T17:51:13.615Z,38.42
2023-09-29T17:53:41.747Z,37.22
2023-09-29T17:56:11.975Z,37.58
2023-09-29T17:58:42.309Z,38.55
2023-09-29T18:01:12.589Z,36.38
2023-09-29T18:03:42.474Z,38.55
2023-09-29T18:06:12.437Z,37.33
2023-09-29T18:08:41.804Z,37.83
2023-09-29T18:11:10.219Z,37.03
2023-09-29T18:13:38.630Z,38.25
2023-09-29T18:16:09.552Z,36.60
2023-09-29T18:18:37.858Z,36.53
2023-09-29T18:21:06.102Z,34.75
2023-09-29T18:23:34.211Z,35.95
2023-09-29T18:26:02.658Z,36.75
2023-09-29T18:28:32.669Z,36.38
2023-09-29T18:31:00.964Z,37.35
2023-09-29T18:33:30.633Z,37.03
2023-09-29T18:35:58.816Z,37.20
2023-09-29T18:38:26.933Z,34.38
2023-09-29T18:40:55.082Z,33.35
2023-09-29T18:43:23.194Z,35.42
2023-09-29T18:45:51.288Z,34.70
2023-09-29T18:48:19.560Z,34.58
2023-09-29T18:50:49.129Z,31.40
2023-09-29T18:53:17.322Z,33.30
2023-09-29T18:55:45.517Z,33.00
2023-09-29T18:58:13.572Z,32.03
2023-09-29T19:00:41.883Z,30.38
2023-09-29T19:03:10.194Z,31.75
2023-09-29T19:05:40.726Z,30.95
2023-09-29T19:08:10.383Z,31.52
2023-09-29T19:10:38.967Z,31.27
2023-09-29T19:13:08.191Z,29.65
2023-09-29T19:15:36.332Z,28.55
2023-09-29T19:18:04.517Z,29.45
2023-09-29T19:20:33.571Z,29.13
2023-09-29T19:23:01.688Z,30.70
2023-09-29T19:25:34.203Z,27.33
2023-09-29T19:28:03.134Z,28.30
2023-09-29T19:30:31.337Z,26.67
2023-09-29T19:33:00.554Z,27.60
2023-09-29T19:35:28.842Z,30.10
2023-09-29T19:37:57.199Z,29.42
2023-09-29T19:40:25.503Z,28.92
2023-09-29T19:42:55.415Z,28.88
2023-09-29T19:45:23.539Z,30.05
2023-09-29T19:47:52.956Z,27.77
2023-09-29T19:50:21.272Z,27.42
2023-09-29T19:52:49.388Z,29.05
2023-09-29T19:55:17.821Z,28.10
2023-09-29T19:57:47.158Z,28.30
2023-09-29T20:00:19.282Z,27.08
2023-09-29T20:02:47.599Z,26.42
2023-09-29T20:05:17.191Z,28.00
2023-09-29T20:07:46.583Z,27.00
2023-09-29T20:10:14.650Z,27.02
2023-09-29T20:12:42.996Z,27.33
2023-09-29T20:15:12.186Z,28.52
2023-09-29T20:17:41.779Z,28.38
2023-09-29T20:20:11.018Z,29.42
2023-09-29T20:22:39.113Z,28.33
2023-09-29T20:25:07.863Z,26.80
2023-09-29T20:27:35.967Z,29.67
2023-09-29T20:30:04.202Z,29.33
2023-09-29T20:32:32.332Z,30.48
2023-09-29T20:35:02.282Z,30.77
2023-09-29T20:37:30.397Z,30.80
2023-09-29T20:39:59.608Z,27.88
2023-09-29T20:42:27.669Z,29.92
2023-09-29T20:44:55.701Z,32.08
2023-09-29T20:47:23.694Z,27.88
2023-09-29T20:49:52.317Z,28.23
2023-09-29T20:52:21.840Z,28.90
2023-09-29T20:54:49.850Z,28.10
2023-09-29T20:57:17.937Z,29.73
2023-09-29T20:59:45.921Z,30.38
2023-09-29T21:02:13.910Z,28.70
2023-09-29T21:04:42.612Z,28.02
2023-09-29T21:07:11.108Z,29.40
2023-09-29T21:09:40.835Z,28.35
2023-09-29T21:12:09.347Z,26.27
2023-09-29T21:14:37.548Z,27.35
2023-09-29T21:17:05.641Z,26.98
2023-09-29T21:19:35.607Z,27.13
2023-09-29T21:22:04.674Z,23.08
2023-09-29T21:24:36.309Z,24.42
2023-09-29T21:27:06.049Z,22.48
2023-09-29T21:29:34.045Z,24.60
2023-09-29T21:32:02.849Z,24.90
2023-09-29T21:34:30.857Z,23.30
2023-09-29T21:36:58.932Z,23.75
2023-09-29T21:39:27.505Z,22.92
2023-09-29T21:41:55.527Z,22.65
2023-09-29T21:44:25.013Z,23.45
2023-09-29T21:46:53.240Z,23.17
2023-09-29T21:49:23.188Z,23.83
2023-09-29T21:51:51.692Z,22.58
2023-09-29T21:54:19.922Z,22.90
2023-09-29T21:56:49.648Z,20.73
2023-09-29T21:59:18.370Z,21.52
2023-09-29T22:01:48.754Z,20.00
2023-09-29T22:04:16.949Z,18.85
2023-09-29T22:06:46.431Z,22.05
2023-09-29T22:09:15.441Z,20.60
2023-09-29T22:11:45.696Z,20.75
2023-09-29T22:14:15.516Z,20.67
2023-09-29T22:16:45.233Z,18.42
2023-09-29T22:19:15.336Z,19.65
2023-09-29T22:21:43.524Z,20.15
2023-09-29T22:24:11.665Z,18.00
2023-09-29T22:26:39.710Z,21.27
2023-09-29T22:29:07.815Z,17.85
2023-09-29T22:31:36.600Z,17.05
2023-09-29T22:34:04.952Z,18.25
2023-09-29T22:36:34.511Z,18.35
2023-09-29T22:39:02.741Z,18.15
2023-09-29T22:41:31.007Z,16.63
2023-09-29T22:43:59.174Z,16.40
2023-09-29T22:46:27.633Z,15.82
2023-09-29T22:48:56.339Z,15.60
2023-09-29T22:51:25.208Z,16.50
2023-09-29T22:53:54.713Z,14.35
2023-09-29T22:56:23.300Z,14.90
2023-09-29T22:58:51.306Z,14.50
2023-09-29T23:01:19.799Z,14.00
2023-09-29T23:03:47.911Z,13.82
2023-09-29T23:06:16.031Z,13.52
2023-09-29T23:08:46.356Z,14.70
2023-09-29T23:11:15.869Z,15.20
2023-09-29T23:13:45.410Z,12.82
2023-09-29T23:16:13.508Z,13.55
2023-09-29T23:18:42.286Z,13.23
2023-09-29T23:21:10.492Z,12.90
2023-09-29T23:23:38.521Z,13.77
2023-09-29T23:26:06.956Z,12.70
2023-09-29T23:28:37.997Z,11.93
2023-09-29T23:31:07.039Z,11.38
2023-09-29T23:33:37.036Z,11.82
2023-09-29T23:36:06.205Z,12.18
2023-09-29T23:38:34.498Z,11.02
2023-09-29T23:41:07.816Z,11.02
2023-09-29T23:43:37.267Z,10.40
2023-09-29T23:46:05.408Z,10.00
2023-09-29T23:48:33.601Z,10.85
2023-09-29T23:51:03.362Z,9.88
2023-09-29T23:53:31.572Z,9.85
2023-09-29T23:56:05.128Z,9.88
2023-09-29T23:58:33.204Z,10.52
